Stettler, Canada
Current Conditions -  °F | °C
As of 8:00 AM on Thursday 23 Oct 2014 (Local Time) from CYQF Reporting Station
Few Clouds Few Clouds  
Wind Chill: 31°   Ceiling: Unl
Heat Index: 36°   Visibility: 15mi
Dew Point: 30°   Wind: 6mph
Humidity: 81%   Direction: 190°S
Pressure: 29.46"   Gusts: NA
Location:  52.33°N, 112.68°W
Report Text: CYQF 231400Z 19005KT 15SM FEW100 02/M01 A2946 RMK AC1 SLP999
Loading
Personal Weather Stations






























Interactive Weather Map
Tropical Storm Tracking
New forecast layout! Learn more

10-Day Weather Forecast

Advertisements
Track Severe Weather on mobile